Terminal Aerodrome Forecast
Issued by NWS

Home | Current Version | Previous Version | Text Only | Print | Product List | Glossary On
Versions: 1 2 3 4 5 6 7 8 9 10 11 12 13 14 15 16
000
FTUS43 KTOP 262012 AAA
TAFFOE
TAF AMD
KFOE 262012Z 2620/2718 13009KT 3SM -RA BKN100
      TEMPO 2620/2624 1SM TSRA SCT040CB BKN100
     FM270100 17008KT P6SM VCTS SCT035CB BKN060 WS020/26040KT
      TEMPO 2701/2705 6SM -TSRA BKN035CB
     FM270700 27006KT P6SM VCTS BKN080CB
     FM271200 35005KT P6SM OVC015=

USA.gov is the U.S. government's official web portal to all federal, state and local government web resources and services.